La Feria, Mexico

12:48 PM CDT on May 24, 2017 (GMT -0500)
Gustavo Diaz Ordaz, Tamps | | Change Station

Elev 151 ft 26.24 °N, 98.60 °W | Updated 11 minutes ago

Partly Cloudy
Partly Cloudy
79.0 °F
Feels Like 80 °F
N
1.0
Wind Variable Wind from NNE
Gusts 4.0 mph

Today
High -- | Low -- °F
--% Chance of Precip.
Yesterday
High -- | Low -- °F
Precip. -- in
Pressure 29.95 in
Visibility 8.0 miles
Clouds Few 4000 ft
Few 7000 ft
Heat Index 80 °F
Dew Point 56 °F
Humidity 45%
Rainfall 0.12 in
Snow Depth Not available.
6:45 AM 8:19 PM
Waning Crescent, 2% visible
METAR MMRX 241655Z 27006KT 8SM FEW040 FEW070 24/07 A2995 RMK 8/550 HZY
Pressure 29.95 in
Visibility 8.0 miles
Clouds Few 4000 ft
Few 7000 ft
Heat Index 80 °F
Dew Point 56 °F
Humidity 45%
Rainfall 0.12 in
Snow Depth Not available.
6:45 AM 8:19 PM
Waning Crescent, 2% visible
METAR MMRX 241655Z 27006KT 8SM FEW040 FEW070 24/07 A2995 RMK 8/550 HZY

Get Severe Weather Alerts

Thanks for signing up!

Be on the lookout for a verification email in your inbox.

You'll start receiving the daily forecast at 6 AM.

×

10-Day Weather Forecast

No radar image for this location.
×

Almanac

Astronomy

May. 24, 2017 Rise Set
Actual Time
Civil Twilight
Nautical Twilight
Astronomical Twilight
Moon
Length of Visible Light
Length of Day
Tomorrow will be .
, % of the Moon is Illuminated

Today's Extremes

Country Highs Country Lows

Community

WunderPhotos

Category 6

Welcome to Category 6. This is the collective home for Weather Underground's featured writeups by Dr. Jeff Masters (right), Bob Henson (left), Chris Burt, and other regular contributors.

Nearby

Air Quality

  Air Quality AQ Index Pollutant
Not available.

Snow Depth

Station Depth Elevation

Earthquake Activity

City Distance Mag. Time & Date
Minimum magnitude displayed is 2.5.

Coastal Water Temperatures

Place Temperature

Stations

Nearby Weather Stations

Station Location Temp. Windchill Dew Point Humidity Wind Precip. Elev Updated Type